CheckWX is a tool to help pilots better visualize weather data.  It is not intended as a substitute for an official pre-flight weather briefing.

08:34:34 UTC

EPZG TAF
Zielona Góra-Babimost Airport
Babimost, Poland
TAF AMD EPZG 220615Z 2206/2215 25011KT 1400 BR OVC005 TEMPO 2206/2213 0600 DZ FG BKN003 BECMG 2213/2215 6000 BKN015

Jan-22@
06:00 UTC

Jan-22 @ 06:00 UTC

Jan-22@
13:00 UTC

Jan-22 @ 13:00 UTC

TAF AMD EPZG 220615Z 2206/2215 25011KT 1400 BR OVC005
Wind
  • 250° at 11 KTS
Conditions
Mist
Cloud Levels
  • Overcast at 500' AGL

Jan-22@
06:00 UTC

Jan-22 @ 06:00 UTC

Jan-22@
13:00 UTC

Jan-22 @ 13:00 UTC

TEMPO 2206/2213 0600 DZ FG BKN003

Temporary

Temporary Changes expected for less than half the time period

Conditions
Drizzle, Fog
Cloud Levels
  • Broken at 300' AGL

Jan-22@
13:00 UTC

Jan-22 @ 13:00 UTC

Jan-22@
15:00 UTC

Jan-22 @ 15:00 UTC

BECMG 2213/2215 6000 BKN015

Becoming

Becoming Conditions expected by Wed, Jan 22, 2020 @ 15:00 UTC

Wind
  • 250° at 11 KTS
Conditions
Mist
Cloud Levels
  • Broken at 1,500' AGL